Iron Lady — WTK5059 — position and weather

sailwx.info

Track history (hours):
 
Tides and Currents Weather Stations Pressure Air Temp Water Temp Dewpoint Dewpoint Depression Visibility Wind Speed Wind Dir Waves Ship Positions

Iron Lady

Owner: IRON LADY INC, SOUTH BEND, WA. More information available from US FCC via Universal Licensing System and Coast Guard Vessel Documentation Center.

Last reported at 2014-Oct-02 15:33 UTC. Time now 2014-Oct-02 16:32 UTC.
Position N 46°10' W 123°55'.

Type: Fishing. MMSI: 367037240.

Date/timePositionNaut miles runAvg speedWind from/ knotsBaromVisibWave heightAir tempDewpointWater temp
2014-Oct-02 15:33N 46°10' W 123°55'0 0.0
2014-Oct-02 14:33N 46°10' W 123°55'0 0.0
2014-Oct-02 13:33N 46°10' W 123°55'0 0.0
2014-Oct-02 12:33N 46°10' W 123°55'0 0.0
2014-Oct-02 11:33N 46°10' W 123°55'0 0.0
2014-Oct-02 10:33N 46°10' W 123°55'0 0.0
2014-Oct-02 09:33N 46°10' W 123°55'0 0.0
2014-Oct-02 08:33N 46°10' W 123°55'0 0.0
2014-Oct-02 07:33N 46°10' W 123°55'0 0.0
2014-Oct-02 06:33N 46°10' W 123°55'0 0.0
2014-Oct-02 05:33N 46°10' W 123°55'0 0.0
2014-Oct-02 04:33N 46°10' W 123°55'0 0.0
2014-Oct-02 03:33N 46°10' W 123°55'0 0.0
2014-Oct-02 02:33N 46°10' W 123°55'2 2.4
2014-Oct-02 01:34N 46°11' W 123°52'0 0.0
2014-Oct-02 00:33N 46°11' W 123°52'0 0.0
2014-Oct-01 23:33N 46°11' W 123°52'5 4.5
2014-Oct-01 22:31N 46°13' W 123°58'3 3.4
2014-Oct-01 21:32N 46°15' W 124°02'4 4.2
2014-Oct-01 20:34N 46°13' W 123°57'4 4.2
2014-Oct-01 19:34N 46°11' W 123°51'0 0.0
2014-Oct-01 18:33N 46°11' W 123°51'2 1.7
2014-Oct-01 17:33N 46°11' W 123°54'1 1.3
2014-Oct-01 16:33N 46°10' W 123°55'0 0.0
2014-Oct-01 15:33N 46°10' W 123°55'0 0.0
2014-Oct-01 14:33N 46°10' W 123°55'0 0.0
2014-Oct-01 13:33N 46°10' W 123°55'0 0.0
2014-Oct-01 12:33N 46°10' W 123°55'0 0.0
2014-Oct-01 11:33N 46°10' W 123°55'0 0.0
2014-Oct-01 10:34N 46°10' W 123°55'0 0.0
2014-Oct-01 09:33N 46°10' W 123°55'0 0.0
2014-Oct-01 08:33N 46°10' W 123°55'0 0.0
2014-Oct-01 07:33N 46°10' W 123°55'0 0.0
2014-Oct-01 06:34N 46°10' W 123°55'0 0.0
2014-Oct-01 05:33N 46°10' W 123°55'0 0.0
2014-Oct-01 04:33N 46°10' W 123°55'0 0.0
2014-Oct-01 03:33N 46°10' W 123°55'0 0.0
2014-Oct-01 02:33N 46°10' W 123°55'2 1.8
2014-Oct-01 01:33N 46°12' W 123°56'7 6.7
2014-Oct-01 00:31N 46°15' W 124°05'3 3.1
2014-Sep-30 23:33N 46°15' W 124°00'6 6.1
2014-Sep-30 22:33N 46°10' W 123°55'0 0.3
2014-Sep-30 21:33N 46°10' W 123°55'0 0.0
2014-Sep-30 20:33N 46°10' W 123°55'4 3.6
2014-Sep-30 19:33N 46°13' W 123°58'6 5.5
2014-Sep-30 18:23N 46°13' W 124°07'2 1.1
2014-Sep-30 16:17N 46°11' W 124°07'4 5.7
2014-Sep-30 15:31N 46°15' W 124°04'8 8.5
2014-Sep-30 14:33N 46°10' W 123°55'0 0.4
2014-Sep-30 13:33N 46°10' W 123°55'0 0.0
2014-Sep-30 12:33N 46°10' W 123°55'0 0.0
2014-Sep-30 11:33N 46°10' W 123°55'0 0.0
2014-Sep-30 10:33N 46°10' W 123°55'0 0.0
2014-Sep-30 09:33N 46°10' W 123°55'0 0.0
2014-Sep-30 08:33N 46°10' W 123°55'0 0.0
2014-Sep-30 07:33N 46°10' W 123°55'0 0.0
2014-Sep-30 06:33N 46°10' W 123°55'0 0.0
2014-Sep-30 05:33N 46°10' W 123°55'0 0.0
2014-Sep-30 04:33N 46°10' W 123°55'0 0.0
2014-Sep-30 03:33N 46°10' W 123°55'0 0.0
2014-Sep-30 02:33N 46°10' W 123°55'3 2.6
2014-Sep-30 01:33N 46°11' W 123°51'3 2.6
2014-Sep-30 00:33N 46°10' W 123°55'0 0.0
2014-Sep-29 23:34N 46°10' W 123°55'0 0.0
2014-Sep-29 22:33N 46°10' W 123°55'0 0.0
2014-Sep-29 21:33N 46°10' W 123°55'0 0.0
2014-Sep-29 20:33N 46°10' W 123°55'0 0.0
2014-Sep-29 19:33N 46°10' W 123°55'0 0.0
2014-Sep-29 18:33N 46°10' W 123°55'0 0.0
2014-Sep-29 17:33N 46°10' W 123°55'0 0.0
2014-Sep-29 16:33N 46°10' W 123°55'0 0.0
2014-Sep-29 15:33N 46°10' W 123°55'0 0.0
2014-Sep-29 14:34N 46°10' W 123°55'0 0.0
2014-Sep-29 13:34N 46°10' W 123°55'0 0.0
2014-Sep-29 12:33N 46°10' W 123°55'0 0.0
2014-Sep-29 11:33N 46°10' W 123°55'0 0.0
2014-Sep-29 10:33N 46°10' W 123°55'0 0.0
2014-Sep-29 09:33N 46°10' W 123°55'0 0.0
2014-Sep-29 08:33N 46°10' W 123°55'0 0.0
2014-Sep-29 07:33N 46°10' W 123°55'0 0.0
2014-Sep-29 06:33N 46°10' W 123°55'0 0.0
2014-Sep-29 05:33N 46°10' W 123°55'0 0.0
2014-Sep-29 04:34N 46°10' W 123°55'0 0.0
2014-Sep-29 03:33N 46°10' W 123°55'0 0.0
2014-Sep-29 02:33N 46°10' W 123°55'0 0.0
2014-Sep-29 01:34N 46°10' W 123°55'0 0.0
2014-Sep-29 00:33N 46°10' W 123°55'0 0.0
2014-Sep-28 23:33N 46°10' W 123°55'0 0.0
2014-Sep-28 22:33N 46°10' W 123°55'0 0.0
2014-Sep-28 21:33N 46°10' W 123°55'0 0.0
2014-Sep-28 20:33N 46°10' W 123°55'0 0.0
2014-Sep-28 19:34N 46°10' W 123°55'0 0.0
2014-Sep-28 18:33N 46°10' W 123°55'0 0.0
2014-Sep-28 17:34N 46°10' W 123°55'0 0.0
2014-Sep-28 16:33N 46°10' W 123°55'0 0.0
2014-Sep-28 15:33N 46°10' W 123°55'0 0.0
2014-Sep-28 14:34N 46°10' W 123°55'0 0.0
2014-Sep-28 13:33N 46°10' W 123°55'0 0.0
2014-Sep-28 12:33N 46°10' W 123°55'0 0.0
2014-Sep-28 11:34N 46°10' W 123°55'0 0.0
2014-Sep-28 10:34N 46°10' W 123°55'0 0.0
2014-Sep-28 09:34N 46°10' W 123°55'0 0.0
2014-Sep-28 08:33N 46°10' W 123°55'0 0.0
2014-Sep-28 07:33N 46°10' W 123°55'0 0.0
2014-Sep-28 06:33N 46°10' W 123°55'0 0.0
2014-Sep-28 05:33N 46°10' W 123°55'0 0.0
2014-Sep-28 04:33N 46°10' W 123°55'0 0.0
2014-Sep-28 03:34N 46°10' W 123°55'0 0.0
2014-Sep-28 02:33N 46°10' W 123°55'0 0.0
2014-Sep-28 01:33N 46°10' W 123°55'0 0.0
2014-Sep-28 00:33N 46°10' W 123°55'0 0.0
2014-Sep-27 23:33N 46°10' W 123°55'0 0.0
2014-Sep-27 22:33N 46°10' W 123°55'0 0.0
2014-Sep-27 21:33N 46°10' W 123°55'0 0.0
2014-Sep-27 20:33N 46°10' W 123°55'0 0.0
2014-Sep-27 19:33N 46°10' W 123°55'0 0.0
2014-Sep-27 18:33N 46°10' W 123°55'0 0.0
2014-Sep-27 17:33N 46°10' W 123°55'0 0.0
2014-Sep-27 16:33N 46°10' W 123°55'0 0.0
2014-Sep-27 15:33N 46°10' W 123°55'0 0.0
2014-Sep-27 14:33N 46°10' W 123°55'0 0.0
2014-Sep-27 13:33N 46°10' W 123°55'0 0.0
2014-Sep-27 12:33N 46°10' W 123°55'0 0.0
2014-Sep-27 11:33N 46°10' W 123°55'0 0.0
2014-Sep-27 10:33N 46°10' W 123°55'0 0.0
2014-Sep-27 09:33N 46°10' W 123°55'0 0.0
2014-Sep-27 08:33N 46°10' W 123°55'0 0.0
2014-Sep-27 07:33N 46°10' W 123°55'0 0.0
2014-Sep-27 06:33N 46°10' W 123°55'0 0.0
2014-Sep-27 05:33N 46°10' W 123°55'0 0.0
2014-Sep-27 04:33N 46°10' W 123°55'0 0.0
2014-Sep-27 03:33N 46°10' W 123°55'0 0.0
2014-Sep-27 02:33N 46°10' W 123°55'0 0.0
2014-Sep-27 01:33N 46°10' W 123°55'0 0.0
2014-Sep-27 00:33N 46°10' W 123°55'0 0.0
2014-Sep-26 22:22N 46°10' W 123°55'0 0.0
2014-Sep-26 21:33N 46°10' W 123°55'0 0.0
2014-Sep-26 20:33N 46°10' W 123°55'0 0.0
2014-Sep-26 19:33N 46°10' W 123°55'0 0.0
2014-Sep-26 18:33N 46°10' W 123°55'0 0.0
2014-Sep-25 09:33N 46°10' W 123°55'0 0.0
2014-Sep-25 08:34N 46°10' W 123°55'0 0.0
2014-Sep-25 07:33N 46°10' W 123°55'0 0.0
2014-Sep-25 06:33N 46°10' W 123°55'0 0.0
2014-Sep-25 05:33N 46°10' W 123°55'0 0.0
2014-Sep-25 04:33N 46°10' W 123°55'0 0.0
2014-Sep-25 03:33N 46°10' W 123°55'0 0.0
2014-Sep-25 02:33N 46°10' W 123°55'0 0.0
2014-Sep-25 01:33N 46°10' W 123°55'0 0.0
2014-Sep-25 00:33N 46°10' W 123°55'0 0.0
2014-Sep-24 23:33N 46°10' W 123°55'0 0.0
2014-Sep-24 22:33N 46°10' W 123°55'0 0.0
2014-Sep-24 21:33N 46°10' W 123°55'0 0.0
2014-Sep-24 20:33N 46°10' W 123°55'2 2.3
2014-Sep-24 19:33N 46°11' W 123°52'1 1.4
2014-Sep-24 18:33N 46°12' W 123°50'1 1.0
2014-Sep-24 17:33N 46°11' W 123°51'0 0.0
2014-Sep-24 16:33N 46°11' W 123°51'0 0.0
2014-Sep-24 15:33N 46°11' W 123°51'0 0.0
2014-Sep-24 14:33N 46°11' W 123°51'0 0.0
2014-Sep-24 13:33N 46°11' W 123°51'0 0.0
2014-Sep-24 12:33N 46°11' W 123°51'2 2.0
2014-Sep-24 11:33N 46°11' W 123°54'1 1.1
2014-Sep-24 10:33N 46°10' W 123°55'0 0.0
2014-Sep-24 09:33N 46°10' W 123°55'0 0.0
2014-Sep-24 08:33N 46°10' W 123°55'0 0.0
2014-Sep-24 07:33N 46°10' W 123°55'0 0.0
2014-Sep-24 06:33N 46°10' W 123°55'0 0.0
2014-Sep-24 05:33N 46°10' W 123°55'0 0.0
2014-Sep-24 04:33N 46°10' W 123°55'0 0.0
2014-Sep-24 03:33N 46°10' W 123°55'0 0.0
2014-Sep-24 02:33N 46°10' W 123°55'0 0.0
2014-Sep-24 01:33N 46°10' W 123°55'0 0.0
2014-Sep-24 00:33N 46°10' W 123°55'0 0.0
2014-Sep-23 23:28N 46°10' W 123°55'0 0.0
2014-Sep-23 22:33N 46°10' W 123°55'0 0.0
2014-Sep-23 21:33N 46°10' W 123°55'0 0.0
2014-Sep-23 20:33N 46°10' W 123°55'0 0.2
2014-Sep-23 19:33N 46°10' W 123°55'  
Track history (hours):
 
Tides and Currents Weather Stations Pressure Air Temp Water Temp Dewpoint Dewpoint Depression Visibility Wind Speed Wind Dir Waves Ship Positions

Iron Lady

Owner: IRON LADY INC, SOUTH BEND, WA. More information available from US FCC via Universal Licensing System and Coast Guard Vessel Documentation Center.

Last reported at 2014-Oct-02 15:33 UTC. Time now 2014-Oct-02 16:32 UTC.
Position N 46°10' W 123°55'.

Type: Fishing. MMSI: 367037240.

Date/timePositionNaut miles runAvg speedWind from/ knotsBaromVisibWave heightAir tempDewpointWater temp
2014-Oct-02 15:33N 46°10' W 123°55'0 0.0
2014-Oct-02 14:33N 46°10' W 123°55'0 0.0
2014-Oct-02 13:33N 46°10' W 123°55'0 0.0
2014-Oct-02 12:33N 46°10' W 123°55'0 0.0
2014-Oct-02 11:33N 46°10' W 123°55'0 0.0
2014-Oct-02 10:33N 46°10' W 123°55'0 0.0
2014-Oct-02 09:33N 46°10' W 123°55'0 0.0
2014-Oct-02 08:33N 46°10' W 123°55'0 0.0
2014-Oct-02 07:33N 46°10' W 123°55'0 0.0
2014-Oct-02 06:33N 46°10' W 123°55'0 0.0
2014-Oct-02 05:33N 46°10' W 123°55'0 0.0
2014-Oct-02 04:33N 46°10' W 123°55'0 0.0
2014-Oct-02 03:33N 46°10' W 123°55'0 0.0
2014-Oct-02 02:33N 46°10' W 123°55'2 2.4
2014-Oct-02 01:34N 46°11' W 123°52'0 0.0
2014-Oct-02 00:33N 46°11' W 123°52'0 0.0
2014-Oct-01 23:33N 46°11' W 123°52'5 4.5
2014-Oct-01 22:31N 46°13' W 123°58'3 3.4
2014-Oct-01 21:32N 46°15' W 124°02'4 4.2
2014-Oct-01 20:34N 46°13' W 123°57'4 4.2
2014-Oct-01 19:34N 46°11' W 123°51'0 0.0
2014-Oct-01 18:33N 46°11' W 123°51'2 1.7
2014-Oct-01 17:33N 46°11' W 123°54'1 1.3
2014-Oct-01 16:33N 46°10' W 123°55'0 0.0
2014-Oct-01 15:33N 46°10' W 123°55'0 0.0
2014-Oct-01 14:33N 46°10' W 123°55'0 0.0
2014-Oct-01 13:33N 46°10' W 123°55'0 0.0
2014-Oct-01 12:33N 46°10' W 123°55'0 0.0
2014-Oct-01 11:33N 46°10' W 123°55'0 0.0
2014-Oct-01 10:34N 46°10' W 123°55'0 0.0
2014-Oct-01 09:33N 46°10' W 123°55'0 0.0
2014-Oct-01 08:33N 46°10' W 123°55'0 0.0
2014-Oct-01 07:33N 46°10' W 123°55'0 0.0
2014-Oct-01 06:34N 46°10' W 123°55'0 0.0
2014-Oct-01 05:33N 46°10' W 123°55'0 0.0
2014-Oct-01 04:33N 46°10' W 123°55'0 0.0
2014-Oct-01 03:33N 46°10' W 123°55'0 0.0
2014-Oct-01 02:33N 46°10' W 123°55'2 1.8
2014-Oct-01 01:33N 46°12' W 123°56'7 6.7
2014-Oct-01 00:31N 46°15' W 124°05'3 3.1
2014-Sep-30 23:33N 46°15' W 124°00'6 6.1
2014-Sep-30 22:33N 46°10' W 123°55'0 0.3
2014-Sep-30 21:33N 46°10' W 123°55'0 0.0
2014-Sep-30 20:33N 46°10' W 123°55'4 3.6
2014-Sep-30 19:33N 46°13' W 123°58'6 5.5
2014-Sep-30 18:23N 46°13' W 124°07'2 1.1
2014-Sep-30 16:17N 46°11' W 124°07'4 5.7
2014-Sep-30 15:31N 46°15' W 124°04'8 8.5
2014-Sep-30 14:33N 46°10' W 123°55'0 0.4
2014-Sep-30 13:33N 46°10' W 123°55'0 0.0
2014-Sep-30 12:33N 46°10' W 123°55'0 0.0
2014-Sep-30 11:33N 46°10' W 123°55'0 0.0
2014-Sep-30 10:33N 46°10' W 123°55'0 0.0
2014-Sep-30 09:33N 46°10' W 123°55'0 0.0
2014-Sep-30 08:33N 46°10' W 123°55'0 0.0
2014-Sep-30 07:33N 46°10' W 123°55'0 0.0
2014-Sep-30 06:33N 46°10' W 123°55'0 0.0
2014-Sep-30 05:33N 46°10' W 123°55'0 0.0
2014-Sep-30 04:33N 46°10' W 123°55'0 0.0
2014-Sep-30 03:33N 46°10' W 123°55'0 0.0
2014-Sep-30 02:33N 46°10' W 123°55'3 2.6
2014-Sep-30 01:33N 46°11' W 123°51'3 2.6
2014-Sep-30 00:33N 46°10' W 123°55'0 0.0
2014-Sep-29 23:34N 46°10' W 123°55'0 0.0
2014-Sep-29 22:33N 46°10' W 123°55'0 0.0
2014-Sep-29 21:33N 46°10' W 123°55'0 0.0
2014-Sep-29 20:33N 46°10' W 123°55'0 0.0
2014-Sep-29 19:33N 46°10' W 123°55'0 0.0
2014-Sep-29 18:33N 46°10' W 123°55'0 0.0
2014-Sep-29 17:33N 46°10' W 123°55'0 0.0
2014-Sep-29 16:33N 46°10' W 123°55'0 0.0
2014-Sep-29 15:33N 46°10' W 123°55'0 0.0
2014-Sep-29 14:34N 46°10' W 123°55'0 0.0
2014-Sep-29 13:34N 46°10' W 123°55'0 0.0
2014-Sep-29 12:33N 46°10' W 123°55'0 0.0
2014-Sep-29 11:33N 46°10' W 123°55'0 0.0
2014-Sep-29 10:33N 46°10' W 123°55'0 0.0
2014-Sep-29 09:33N 46°10' W 123°55'0 0.0
2014-Sep-29 08:33N 46°10' W 123°55'0 0.0
2014-Sep-29 07:33N 46°10' W 123°55'0 0.0
2014-Sep-29 06:33N 46°10' W 123°55'0 0.0
2014-Sep-29 05:33N 46°10' W 123°55'0 0.0
2014-Sep-29 04:34N 46°10' W 123°55'0 0.0
2014-Sep-29 03:33N 46°10' W 123°55'0 0.0
2014-Sep-29 02:33N 46°10' W 123°55'0 0.0
2014-Sep-29 01:34N 46°10' W 123°55'0 0.0
2014-Sep-29 00:33N 46°10' W 123°55'0 0.0
2014-Sep-28 23:33N 46°10' W 123°55'0 0.0
2014-Sep-28 22:33N 46°10' W 123°55'0 0.0
2014-Sep-28 21:33N 46°10' W 123°55'0 0.0
2014-Sep-28 20:33N 46°10' W 123°55'0 0.0
2014-Sep-28 19:34N 46°10' W 123°55'0 0.0
2014-Sep-28 18:33N 46°10' W 123°55'0 0.0
2014-Sep-28 17:34N 46°10' W 123°55'0 0.0
2014-Sep-28 16:33N 46°10' W 123°55'0 0.0
2014-Sep-28 15:33N 46°10' W 123°55'0 0.0
2014-Sep-28 14:34N 46°10' W 123°55'0 0.0
2014-Sep-28 13:33N 46°10' W 123°55'0 0.0
2014-Sep-28 12:33N 46°10' W 123°55'0 0.0
2014-Sep-28 11:34N 46°10' W 123°55'0 0.0
2014-Sep-28 10:34N 46°10' W 123°55'0 0.0
2014-Sep-28 09:34N 46°10' W 123°55'0 0.0
2014-Sep-28 08:33N 46°10' W 123°55'0 0.0
2014-Sep-28 07:33N 46°10' W 123°55'0 0.0
2014-Sep-28 06:33N 46°10' W 123°55'0 0.0
2014-Sep-28 05:33N 46°10' W 123°55'0 0.0
2014-Sep-28 04:33N 46°10' W 123°55'0 0.0
2014-Sep-28 03:34N 46°10' W 123°55'0 0.0
2014-Sep-28 02:33N 46°10' W 123°55'0 0.0
2014-Sep-28 01:33N 46°10' W 123°55'0 0.0
2014-Sep-28 00:33N 46°10' W 123°55'0 0.0
2014-Sep-27 23:33N 46°10' W 123°55'0 0.0
2014-Sep-27 22:33N 46°10' W 123°55'0 0.0
2014-Sep-27 21:33N 46°10' W 123°55'0 0.0
2014-Sep-27 20:33N 46°10' W 123°55'0 0.0
2014-Sep-27 19:33N 46°10' W 123°55'0 0.0
2014-Sep-27 18:33N 46°10' W 123°55'0 0.0
2014-Sep-27 17:33N 46°10' W 123°55'0 0.0
2014-Sep-27 16:33N 46°10' W 123°55'0 0.0
2014-Sep-27 15:33N 46°10' W 123°55'0 0.0
2014-Sep-27 14:33N 46°10' W 123°55'0 0.0
2014-Sep-27 13:33N 46°10' W 123°55'0 0.0
2014-Sep-27 12:33N 46°10' W 123°55'0 0.0
2014-Sep-27 11:33N 46°10' W 123°55'0 0.0
2014-Sep-27 10:33N 46°10' W 123°55'0 0.0
2014-Sep-27 09:33N 46°10' W 123°55'0 0.0
2014-Sep-27 08:33N 46°10' W 123°55'0 0.0
2014-Sep-27 07:33N 46°10' W 123°55'0 0.0
2014-Sep-27 06:33N 46°10' W 123°55'0 0.0
2014-Sep-27 05:33N 46°10' W 123°55'0 0.0
2014-Sep-27 04:33N 46°10' W 123°55'0 0.0
2014-Sep-27 03:33N 46°10' W 123°55'0 0.0
2014-Sep-27 02:33N 46°10' W 123°55'0 0.0
2014-Sep-27 01:33N 46°10' W 123°55'0 0.0
2014-Sep-27 00:33N 46°10' W 123°55'0 0.0
2014-Sep-26 22:22N 46°10' W 123°55'0 0.0
2014-Sep-26 21:33N 46°10' W 123°55'0 0.0
2014-Sep-26 20:33N 46°10' W 123°55'0 0.0
2014-Sep-26 19:33N 46°10' W 123°55'0 0.0
2014-Sep-26 18:33N 46°10' W 123°55'0 0.0
2014-Sep-25 09:33N 46°10' W 123°55'0 0.0
2014-Sep-25 08:34N 46°10' W 123°55'0 0.0
2014-Sep-25 07:33N 46°10' W 123°55'0 0.0
2014-Sep-25 06:33N 46°10' W 123°55'0 0.0
2014-Sep-25 05:33N 46°10' W 123°55'0 0.0
2014-Sep-25 04:33N 46°10' W 123°55'0 0.0
2014-Sep-25 03:33N 46°10' W 123°55'0 0.0
2014-Sep-25 02:33N 46°10' W 123°55'0 0.0
2014-Sep-25 01:33N 46°10' W 123°55'0 0.0
2014-Sep-25 00:33N 46°10' W 123°55'0 0.0
2014-Sep-24 23:33N 46°10' W 123°55'0 0.0
2014-Sep-24 22:33N 46°10' W 123°55'0 0.0
2014-Sep-24 21:33N 46°10' W 123°55'0 0.0
2014-Sep-24 20:33N 46°10' W 123°55'2 2.3
2014-Sep-24 19:33N 46°11' W 123°52'1 1.4
2014-Sep-24 18:33N 46°12' W 123°50'1 1.0
2014-Sep-24 17:33N 46°11' W 123°51'0 0.0
2014-Sep-24 16:33N 46°11' W 123°51'0 0.0
2014-Sep-24 15:33N 46°11' W 123°51'0 0.0
2014-Sep-24 14:33N 46°11' W 123°51'0 0.0
2014-Sep-24 13:33N 46°11' W 123°51'0 0.0
2014-Sep-24 12:33N 46°11' W 123°51'2 2.0
2014-Sep-24 11:33N 46°11' W 123°54'1 1.1
2014-Sep-24 10:33N 46°10' W 123°55'0 0.0
2014-Sep-24 09:33N 46°10' W 123°55'0 0.0
2014-Sep-24 08:33N 46°10' W 123°55'0 0.0
2014-Sep-24 07:33N 46°10' W 123°55'0 0.0
2014-Sep-24 06:33N 46°10' W 123°55'0 0.0
2014-Sep-24 05:33N 46°10' W 123°55'0 0.0
2014-Sep-24 04:33N 46°10' W 123°55'0 0.0
2014-Sep-24 03:33N 46°10' W 123°55'0 0.0
2014-Sep-24 02:33N 46°10' W 123°55'0 0.0
2014-Sep-24 01:33N 46°10' W 123°55'0 0.0
2014-Sep-24 00:33N 46°10' W 123°55'0 0.0
2014-Sep-23 23:28N 46°10' W 123°55'0 0.0
2014-Sep-23 22:33N 46°10' W 123°55'0 0.0
2014-Sep-23 21:33N 46°10' W 123°55'0 0.0
2014-Sep-23 20:33N 46°10' W 123°55'0 0.2
2014-Sep-23 19:33N 46°10' W 123°55'  

Dump ship's entire track history